Time;durP1;ratioP1;P1;durP2;ratioP2;P2;SDS_P1;SDS_P2;PMS_P1;PMS_P2;Temp;Humidity;BMP_temperature;BMP_pressure;BME280_temperature;BME280_humidity;BME280_pressure;Samples;Min_cycle;Max_cycle;Signal;HPM_P1;HPM_P2
2024/04/08 00:00:24;;;;;;;;;;;;;;;21.24;40.41;101641.73;103026;1292;62973;-79
2024/04/08 00:02:50;;;;;;;;;;;;;;;21.24;40.39;101640.50;102862;1297;62997;-79
2024/04/08 00:05:16;;;;;;;;;;;;;;;21.24;40.17;101639.42;102911;1291;64611;-78
2024/04/08 00:07:42;;;;;;;;;;;;;;;21.23;40.42;101638.54;102884;1292;63081;-78
2024/04/08 00:10:07;;;;;;;;;;;;;;;21.23;40.48;101640.34;102886;1291;63689;-78
2024/04/08 00:12:33;;;;;;;;;;;;;;;21.23;40.45;101637.13;102868;1291;76239;-79
2024/04/08 00:14:58;;;;;;;;;;;;;;;21.23;40.42;101635.67;102917;1292;62997;-79
2024/04/08 00:17:24;;;;;;;;;;;;;;;21.23;40.34;101635.14;102973;1291;63108;-78
2024/04/08 00:19:49;;;;;;;;;;;;;;;21.23;40.44;101631.24;102892;1295;62979;-78
2024/04/08 00:22:15;;;;;;;;;;;;;;;21.22;40.46;101632.14;102980;1291;63059;-79
2024/04/08 00:24:41;;;;;;;;;;;;;;;21.22;40.36;101631.42;102910;1293;77101;-79
2024/04/08 00:27:07;;;;;;;;;;;;;;;21.22;40.30;101638.27;102796;1291;63034;-79
2024/04/08 00:29:33;;;;;;;;;;;;;;;21.21;40.28;101635.98;102935;1291;63073;-79
2024/04/08 00:31:58;;;;;;;;;;;;;;;21.22;40.31;101639.36;102854;1291;63995;-77
2024/04/08 00:34:24;;;;;;;;;;;;;;;21.22;40.42;101634.16;102885;1297;63912;-77
2024/04/08 00:36:49;;;;;;;;;;;;;;;21.21;40.34;101634.37;102923;1291;63086;-78
2024/04/08 00:39:15;;;;;;;;;;;;;;;21.21;40.39;101632.61;102922;1290;62952;-77
2024/04/08 00:41:41;;;;;;;;;;;;;;;21.21;40.43;101633.83;102911;1291;62998;-79
2024/04/08 00:44:06;;;;;;;;;;;;;;;21.21;40.54;101630.46;102872;1291;63032;-77
2024/04/08 00:46:32;;;;;;;;;;;;;;;21.21;40.41;101628.84;102940;1292;63670;-77
2024/04/08 00:48:57;;;;;;;;;;;;;;;21.21;40.45;101629.38;102971;1297;63646;-78
2024/04/08 00:51:24;;;;;;;;;;;;;;;21.20;40.52;101629.61;102719;1291;64206;-78
2024/04/08 00:53:49;;;;;;;;;;;;;;;21.20;40.42;101632.10;102915;1291;64301;-79
2024/04/08 00:56:18;;;;;;;;;;;;;;;21.20;40.51;101637.28;102863;1290;63009;-79
2024/04/08 00:58:44;;;;;;;;;;;;;;;21.20;40.44;101638.53;102893;1291;76026;-79
2024/04/08 01:01:15;;;;;;;;;;;;;;;21.20;40.45;101637.48;102889;1297;63172;-79
2024/04/08 01:03:42;;;;;;;;;;;;;;;21.20;40.39;101639.12;102897;1292;63020;-78
2024/04/08 01:06:08;;;;;;;;;;;;;;;21.20;40.56;101638.58;102920;1293;63093;-79
2024/04/08 01:08:34;;;;;;;;;;;;;;;21.19;40.51;101638.98;102887;1294;62867;-79
2024/04/08 01:10:59;;;;;;;;;;;;;;;21.20;40.50;101637.70;102848;1294;62988;-78
2024/04/08 01:13:25;;;;;;;;;;;;;;;21.19;40.61;101635.75;102871;1291;62924;-79
2024/04/08 01:15:51;;;;;;;;;;;;;;;21.19;40.44;101634.85;102857;1291;63070;-78
2024/04/08 01:18:16;;;;;;;;;;;;;;;21.19;40.49;101636.81;102945;1291;63641;-78
2024/04/08 01:20:42;;;;;;;;;;;;;;;21.19;40.62;101637.55;102878;1291;76145;-78
2024/04/08 01:23:08;;;;;;;;;;;;;;;21.19;40.46;101642.03;102944;1294;63206;-79
2024/04/08 01:25:34;;;;;;;;;;;;;;;21.19;40.47;101637.73;102919;1291;63046;-78
2024/04/08 01:27:59;;;;;;;;;;;;;;;21.19;40.55;101636.65;102919;1291;63088;-78
2024/04/08 01:30:25;;;;;;;;;;;;;;;21.18;40.56;101637.41;103034;1294;63990;-79
2024/04/08 01:32:51;;;;;;;;;;;;;;;21.18;40.54;101637.43;102898;1291;63773;-78
2024/04/08 01:35:16;;;;;;;;;;;;;;;21.19;40.44;101638.11;102924;1292;62913;-78
2024/04/08 01:37:42;;;;;;;;;;;;;;;21.18;40.52;101638.88;102869;1291;63010;-78
2024/04/08 01:40:08;;;;;;;;;;;;;;;21.18;40.55;101635.13;102917;1294;63937;-79
2024/04/08 01:42:33;;;;;;;;;;;;;;;21.18;40.53;101635.66;102863;1291;63942;-78
2024/04/08 01:44:59;;;;;;;;;;;;;;;21.17;40.53;101636.39;102899;1291;63630;-79
2024/04/08 01:47:25;;;;;;;;;;;;;;;21.17;40.51;101634.79;102928;1291;62931;-78
2024/04/08 01:49:50;;;;;;;;;;;;;;;21.17;40.54;101633.89;102888;1291;63008;-78
2024/04/08 01:52:16;;;;;;;;;;;;;;;21.17;40.46;101630.31;102885;1292;63005;-79
2024/04/08 01:54:41;;;;;;;;;;;;;;;21.17;40.64;101626.21;102904;1291;63720;-77
2024/04/08 01:57:07;;;;;;;;;;;;;;;21.17;40.47;101630.33;102821;1292;63077;-79
2024/04/08 01:59:33;;;;;;;;;;;;;;;21.16;40.56;101628.20;102931;1291;63065;-79
2024/04/08 02:01:58;;;;;;;;;;;;;;;21.16;40.55;101627.13;102962;1291;63012;-78
2024/04/08 02:04:24;;;;;;;;;;;;;;;21.16;40.53;101627.86;102832;1297;64079;-78
2024/04/08 02:06:49;;;;;;;;;;;;;;;21.16;40.56;101626.98;102856;1292;64268;-79
2024/04/08 02:09:15;;;;;;;;;;;;;;;21.16;40.60;101629.83;102858;1292;63676;-78
2024/04/08 02:11:40;;;;;;;;;;;;;;;21.16;40.50;101632.71;102878;1291;63064;-78
2024/04/08 02:14:06;;;;;;;;;;;;;;;21.16;40.63;101630.95;102825;1295;63007;-79
2024/04/08 02:16:31;;;;;;;;;;;;;;;21.16;40.45;101634.15;102877;1296;63057;-78
2024/04/08 02:18:57;;;;;;;;;;;;;;;21.15;40.60;101630.42;102916;1297;62918;-79
2024/04/08 02:21:22;;;;;;;;;;;;;;;21.15;40.55;101630.80;102873;1291;63011;-79
2024/04/08 02:23:48;;;;;;;;;;;;;;;21.15;40.48;101630.81;102424;1295;689544;-79
2024/04/08 02:26:14;;;;;;;;;;;;;;;21.14;40.48;101632.27;102939;1291;63686;-79
2024/04/08 02:28:40;;;;;;;;;;;;;;;21.14;40.48;101637.11;102875;1291;63007;-79
2024/04/08 02:31:05;;;;;;;;;;;;;;;21.14;40.58;101636.02;102838;1291;64045;-78
2024/04/08 02:33:31;;;;;;;;;;;;;;;21.14;40.59;101632.10;102899;1297;64077;-79
2024/04/08 02:36:03;;;;;;;;;;;;;;;21.14;40.48;101633.91;102938;1290;63014;-79
2024/04/08 02:38:28;;;;;;;;;;;;;;;21.14;40.55;101635.02;102882;1294;63348;-78
2024/04/08 02:40:54;;;;;;;;;;;;;;;21.14;40.47;101635.17;102809;1292;63088;-78
2024/04/08 02:43:19;;;;;;;;;;;;;;;21.14;40.66;101641.97;102855;1292;63968;-77
2024/04/08 02:45:45;;;;;;;;;;;;;;;21.13;40.53;101644.86;102973;1291;64129;-78
2024/04/08 02:48:11;;;;;;;;;;;;;;;21.13;40.39;101651.48;102915;1291;63753;-77
2024/04/08 02:50:36;;;;;;;;;;;;;;;21.14;40.51;101656.30;102932;1295;63074;-78
2024/04/08 02:53:02;;;;;;;;;;;;;;;21.13;40.50;101654.38;103005;1294;63038;-78
2024/04/08 02:55:28;;;;;;;;;;;;;;;21.13;40.58;101655.81;102845;1294;63979;-78
2024/04/08 02:57:53;;;;;;;;;;;;;;;21.13;40.33;101654.73;102869;1291;63347;-78
2024/04/08 03:00:19;;;;;;;;;;;;;;;21.13;40.40;101654.92;102941;1297;63716;-79
2024/04/08 03:02:45;;;;;;;;;;;;;;;21.13;40.36;101652.79;102781;1293;62969;-79
2024/04/08 03:05:12;;;;;;;;;;;;;;;21.12;40.56;101653.34;102847;1296;72510;-77
2024/04/08 03:07:38;;;;;;;;;;;;;;;21.12;40.44;101651.00;102937;1291;63052;-79
2024/04/08 03:10:04;;;;;;;;;;;;;;;21.12;40.42;101650.32;102797;1297;63026;-79
2024/04/08 03:12:30;;;;;;;;;;;;;;;21.11;40.50;101650.17;102924;1294;64122;-79
2024/04/08 03:14:56;;;;;;;;;;;;;;;21.11;40.41;101649.46;102924;1292;63739;-78
2024/04/08 03:17:22;;;;;;;;;;;;;;;21.11;40.56;101650.54;102945;1296;64014;-78
2024/04/08 03:19:50;;;;;;;;;;;;;;;21.11;40.46;101650.17;102919;1291;63485;-78
2024/04/08 03:22:16;;;;;;;;;;;;;;;21.11;40.53;101649.63;102922;1291;63213;-77
2024/04/08 03:24:42;;;;;;;;;;;;;;;21.11;40.46;101647.67;102876;1291;63007;-77
2024/04/08 03:27:07;;;;;;;;;;;;;;;21.11;40.50;101648.23;102831;1291;63038;-79
2024/04/08 03:29:33;;;;;;;;;;;;;;;21.10;40.60;101651.48;102872;1291;63676;-79
2024/04/08 03:31:58;;;;;;;;;;;;;;;21.10;40.35;101652.74;102880;1292;62921;-79
2024/04/08 03:34:24;;;;;;;;;;;;;;;21.10;40.38;101656.84;102805;1297;62962;-79
2024/04/08 03:36:50;;;;;;;;;;;;;;;21.10;40.46;101656.88;102937;1291;63068;-78
2024/04/08 03:39:15;;;;;;;;;;;;;;;21.09;40.41;101657.26;102935;1295;63064;-79
2024/04/08 03:41:41;;;;;;;;;;;;;;;21.09;40.44;101660.34;102954;1297;62918;-79
2024/04/08 03:44:07;;;;;;;;;;;;;;;21.08;40.40;101661.45;103095;1293;62909;-79
2024/04/08 03:46:33;;;;;;;;;;;;;;;21.06;40.45;101667.80;103192;1291;62971;-79
2024/04/08 03:48:58;;;;;;;;;;;;;;;21.05;40.46;101666.59;103094;1291;64116;-79
2024/04/08 03:51:25;;;;;;;;;;;;;;;21.05;40.38;101667.35;103076;1296;63063;-79
2024/04/08 03:53:51;;;;;;;;;;;;;;;21.04;40.38;101668.27;103106;1292;62964;-79
2024/04/08 03:56:16;;;;;;;;;;;;;;;21.04;40.40;101668.50;103078;1293;63013;-79
2024/04/08 03:58:42;;;;;;;;;;;;;;;21.03;40.40;101671.02;103134;1291;63981;-79
2024/04/08 04:01:09;;;;;;;;;;;;;;;21.03;40.35;101676.40;103026;1291;73641;-79
2024/04/08 04:03:35;;;;;;;;;;;;;;;21.03;40.40;101678.20;103077;1291;74812;-79
2024/04/08 04:06:01;;;;;;;;;;;;;;;21.03;40.34;101676.06;103137;1291;63700;-79
2024/04/08 04:08:27;;;;;;;;;;;;;;;21.02;40.23;101677.89;103103;1295;63027;-78
2024/04/08 04:10:52;;;;;;;;;;;;;;;21.02;40.28;101675.92;103023;1292;63035;-78
2024/04/08 04:13:18;;;;;;;;;;;;;;;21.02;40.30;101674.86;103038;1295;63011;-78
2024/04/08 04:15:44;;;;;;;;;;;;;;;21.01;40.32;101674.91;103134;1294;63039;-78
2024/04/08 04:18:09;;;;;;;;;;;;;;;21.01;40.41;101679.40;103107;1291;62956;-78
2024/04/08 04:20:40;;;;;;;;;;;;;;;21.00;40.25;101681.43;103087;1296;62951;-78
2024/04/08 04:23:06;;;;;;;;;;;;;;;20.99;40.33;101678.06;103201;1294;72485;-79
2024/04/08 04:25:31;;;;;;;;;;;;;;;20.98;40.26;101678.13;103635;1292;62900;-80
2024/04/08 04:27:59;;;;;;;;;;;;;;;20.98;40.12;101677.42;103457;1297;63005;-79
2024/04/08 04:30:26;;;;;;;;;;;;;;;20.98;40.22;101679.56;103404;1294;63010;-79
2024/04/08 04:32:51;;;;;;;;;;;;;;;20.98;40.14;101681.17;103535;1294;62912;-79
2024/04/08 04:35:17;;;;;;;;;;;;;;;20.98;40.21;101683.52;103364;1294;63108;-79
2024/04/08 04:37:43;;;;;;;;;;;;;;;20.98;40.31;101690.65;103096;1292;63023;-77
2024/04/08 04:40:09;;;;;;;;;;;;;;;20.97;40.25;101690.71;103571;1294;62989;-78
2024/04/08 04:42:34;;;;;;;;;;;;;;;20.94;40.11;101690.86;103384;1291;63509;-79
2024/04/08 04:45:00;;;;;;;;;;;;;;;20.92;40.08;101691.90;103828;1294;63451;-78
2024/04/08 04:47:25;;;;;;;;;;;;;;;20.87;40.33;101688.56;103731;1292;63099;-79
2024/04/08 04:49:51;;;;;;;;;;;;;;;20.81;39.99;101684.79;103997;1292;62924;-81
2024/04/08 04:52:16;;;;;;;;;;;;;;;20.77;40.11;101687.19;103765;1290;63004;-79
2024/04/08 04:54:42;;;;;;;;;;;;;;;20.73;40.12;101689.52;103844;1294;62995;-80
2024/04/08 04:57:08;;;;;;;;;;;;;;;20.71;40.16;101695.92;104239;1294;62982;-80
2024/04/08 04:59:33;;;;;;;;;;;;;;;20.68;40.15;101695.71;103939;1290;76154;-79
2024/04/08 05:01:59;;;;;;;;;;;;;;;20.65;40.15;101692.29;104471;1290;63020;-82
2024/04/08 05:04:24;;;;;;;;;;;;;;;20.62;40.30;101692.27;104250;1294;63051;-81
2024/04/08 05:06:50;;;;;;;;;;;;;;;20.58;40.32;101696.05;104414;1294;65044;-77
2024/04/08 05:09:15;;;;;;;;;;;;;;;20.56;40.18;101701.16;104134;1292;62954;-77
2024/04/08 05:11:41;;;;;;;;;;;;;;;20.56;40.20;101701.34;104205;1291;75138;-77
2024/04/08 05:14:07;;;;;;;;;;;;;;;20.53;40.20;101701.34;103988;1290;63051;-79
2024/04/08 05:16:33;;;;;;;;;;;;;;;20.52;40.47;101699.27;104335;1291;62996;-79
2024/04/08 05:18:58;;;;;;;;;;;;;;;20.52;40.37;101702.10;103987;1296;63035;-79
2024/04/08 05:21:24;;;;;;;;;;;;;;;20.53;40.32;101704.02;103912;1294;63010;-78
2024/04/08 05:23:49;;;;;;;;;;;;;;;20.54;40.22;101705.94;103859;1292;63010;-79
2024/04/08 05:26:15;;;;;;;;;;;;;;;20.56;40.37;101708.34;103880;1294;63564;-78
2024/04/08 05:28:41;;;;;;;;;;;;;;;20.56;40.31;101707.23;104250;1289;63069;-78
2024/04/08 05:31:06;;;;;;;;;;;;;;;20.57;40.33;101706.83;104235;1292;62966;-79
2024/04/08 05:33:32;;;;;;;;;;;;;;;20.58;40.14;101707.88;104294;1292;62933;-79
2024/04/08 05:35:58;;;;;;;;;;;;;;;20.58;40.33;101702.85;104458;1295;62851;-78
2024/04/08 05:38:24;;;;;;;;;;;;;;;20.59;40.39;101704.23;104231;1293;63005;-78
2024/04/08 05:40:50;;;;;;;;;;;;;;;20.60;40.12;101702.21;104419;1290;63108;-79
2024/04/08 05:43:16;;;;;;;;;;;;;;;20.62;40.24;101701.23;104173;1292;62994;-78
2024/04/08 05:45:42;;;;;;;;;;;;;;;20.63;40.22;101703.30;104331;1295;62937;-78
2024/04/08 05:48:07;;;;;;;;;;;;;;;20.64;40.17;101702.70;104313;1289;63008;-79
2024/04/08 05:50:33;;;;;;;;;;;;;;;20.66;40.20;101704.03;104307;1290;62974;-80
2024/04/08 05:52:59;;;;;;;;;;;;;;;20.67;40.22;101704.85;104268;1289;63094;-80
2024/04/08 05:55:24;;;;;;;;;;;;;;;20.68;40.16;101703.41;104064;1290;72466;-79
2024/04/08 05:57:50;;;;;;;;;;;;;;;20.63;40.07;101702.09;104420;1289;61250;-80
2024/04/08 06:00:16;;;;;;;;;;;;;;;20.61;40.24;101705.20;104149;1294;62984;-80
2024/04/08 06:02:42;;;;;;;;;;;;;;;20.62;40.34;101710.88;104343;1290;60617;-78
2024/04/08 06:05:08;;;;;;;;;;;;;;;20.61;40.23;101709.84;104378;1297;63243;-78
2024/04/08 06:07:34;;;;;;;;;;;;;;;20.52;40.17;101712.63;104365;1290;62909;-77
2024/04/08 06:09:59;;;;;;;;;;;;;;;20.49;40.29;101713.20;104345;1294;62988;-79
2024/04/08 06:12:25;;;;;;;;;;;;;;;20.51;40.40;101709.16;104193;1292;63026;-78
2024/04/08 06:14:51;;;;;;;;;;;;;;;20.50;40.29;101711.31;104422;1293;60450;-77
2024/04/08 06:17:16;;;;;;;;;;;;;;;20.51;40.23;101711.27;104452;1294;63075;-78
2024/04/08 06:19:42;;;;;;;;;;;;;;;20.53;40.31;101714.92;104886;1289;62904;-77
2024/04/08 06:22:07;;;;;;;;;;;;;;;20.55;40.21;101719.12;104439;1295;62912;-78
2024/04/08 06:24:33;;;;;;;;;;;;;;;20.59;40.30;101723.55;104537;1289;64428;-79
2024/04/08 06:26:59;;;;;;;;;;;;;;;20.61;40.34;101722.73;104528;1290;62885;-80
2024/04/08 06:29:25;;;;;;;;;;;;;;;20.62;40.18;101719.48;104651;1290;62993;-79
2024/04/08 06:31:50;;;;;;;;;;;;;;;20.64;40.27;101723.83;104623;1293;62947;-77
2024/04/08 06:34:16;;;;;;;;;;;;;;;20.67;40.18;101726.17;104639;1294;63781;-78
2024/04/08 06:36:41;;;;;;;;;;;;;;;20.69;40.22;101724.30;104448;1293;62965;-78
2024/04/08 06:39:07;;;;;;;;;;;;;;;20.70;40.12;101727.09;104333;1290;60858;-78
2024/04/08 06:41:34;;;;;;;;;;;;;;;20.73;40.26;101727.63;104623;1291;62847;-78
2024/04/08 06:44:00;;;;;;;;;;;;;;;20.75;40.16;101726.80;105014;1292;62825;-79
2024/04/08 06:46:25;;;;;;;;;;;;;;;20.78;40.25;101728.98;103932;1290;64267;-77
2024/04/08 06:48:51;;;;;;;;;;;;;;;20.80;40.16;101725.13;104240;1291;63000;-79
2024/04/08 06:51:16;;;;;;;;;;;;;;;20.82;40.21;101728.58;104551;1290;63447;-78
2024/04/08 06:53:42;;;;;;;;;;;;;;;20.85;40.06;101731.65;104907;1295;62889;-78
2024/04/08 06:56:08;;;;;;;;;;;;;;;20.84;40.17;101736.67;104532;1294;76954;-77
2024/04/08 06:58:34;;;;;;;;;;;;;;;20.85;40.20;101732.55;104527;1289;62962;-77
2024/04/08 07:00:59;;;;;;;;;;;;;;;20.87;40.35;101731.90;104395;1294;62942;-77
2024/04/08 07:03:25;;;;;;;;;;;;;;;20.89;40.43;101727.90;104619;1289;62929;-79
2024/04/08 07:05:50;;;;;;;;;;;;;;;20.90;40.44;101725.08;104695;1289;62979;-78
2024/04/08 07:08:17;;;;;;;;;;;;;;;20.90;40.41;101730.09;104587;1289;62692;-77
2024/04/08 07:10:44;;;;;;;;;;;;;;;20.90;40.61;101729.89;104409;1294;62997;-77
2024/04/08 07:13:10;;;;;;;;;;;;;;;20.91;40.51;101732.36;103977;1291;62943;-78
2024/04/08 07:15:35;;;;;;;;;;;;;;;20.92;40.48;101735.71;104227;1292;61670;-78
2024/04/08 07:18:01;;;;;;;;;;;;;;;20.93;40.52;101734.03;104558;1291;60565;-77
2024/04/08 07:20:27;;;;;;;;;;;;;;;20.91;40.42;101730.95;104438;1290;60759;-77
2024/04/08 07:22:53;;;;;;;;;;;;;;;20.89;40.31;101728.91;104525;1290;62891;-77
2024/04/08 07:25:19;;;;;;;;;;;;;;;20.88;40.33;101730.29;104725;1294;62889;-77
2024/04/08 07:27:45;;;;;;;;;;;;;;;20.88;40.45;101732.13;104292;1291;62999;-77
2024/04/08 07:30:11;;;;;;;;;;;;;;;20.89;40.48;101738.01;104398;1289;63376;-78
2024/04/08 07:32:38;;;;;;;;;;;;;;;20.88;40.38;101731.82;104355;1290;63053;-77
2024/04/08 07:35:04;;;;;;;;;;;;;;;20.85;40.27;101737.56;103978;1291;63648;-77
2024/04/08 07:37:30;;;;;;;;;;;;;;;20.80;40.37;101738.39;104248;1291;63436;-79
2024/04/08 07:39:55;;;;;;;;;;;;;;;20.78;40.26;101738.47;104121;1290;62968;-78
2024/04/08 07:42:21;;;;;;;;;;;;;;;20.79;40.35;101740.40;104146;1294;62956;-77
2024/04/08 07:44:46;;;;;;;;;;;;;;;20.82;40.45;101739.88;104527;1292;62822;-78
2024/04/08 07:47:12;;;;;;;;;;;;;;;20.78;40.33;101742.06;104489;1294;63080;-79
2024/04/08 07:49:39;;;;;;;;;;;;;;;20.70;40.45;101742.48;104389;1290;63013;-79
2024/04/08 07:52:05;;;;;;;;;;;;;;;20.61;40.40;101738.11;104444;1290;77243;-79
2024/04/08 07:54:31;;;;;;;;;;;;;;;20.54;40.65;101737.55;104340;1294;62991;-77
2024/04/08 07:56:56;;;;;;;;;;;;;;;20.57;40.79;101736.14;104644;1290;61410;-79
2024/04/08 07:59:22;;;;;;;;;;;;;;;20.58;40.71;101732.16;104741;1294;62969;-79
2024/04/08 08:01:49;;;;;;;;;;;;;;;20.57;40.84;101732.59;104712;1290;63013;-78
2024/04/08 08:04:15;;;;;;;;;;;;;;;20.61;40.83;101728.27;105838;1290;61083;-77
2024/04/08 08:06:41;;;;;;;;;;;;;;;20.68;41.15;101724.30;105525;1289;63027;-78
2024/04/08 08:09:07;;;;;;;;;;;;;;;20.73;41.08;101721.18;104480;1290;63611;-79
2024/04/08 08:11:33;;;;;;;;;;;;;;;20.74;41.21;101719.18;104331;1292;62987;-77
2024/04/08 08:13:58;;;;;;;;;;;;;;;20.78;41.04;101718.59;104108;1292;62876;-80
2024/04/08 08:16:26;;;;;;;;;;;;;;;20.84;41.03;101715.40;104296;1292;60658;-78
2024/04/08 08:18:51;;;;;;;;;;;;;;;20.91;41.08;101721.27;104169;1289;62997;-78
2024/04/08 08:21:17;;;;;;;;;;;;;;;20.94;41.08;101719.31;104349;1291;62965;-81
2024/04/08 08:23:43;;;;;;;;;;;;;;;20.98;41.05;101723.04;104222;1289;62640;-79
2024/04/08 08:26:08;;;;;;;;;;;;;;;21.02;41.15;101720.12;104143;1289;62906;-78
2024/04/08 08:28:34;;;;;;;;;;;;;;;21.05;41.11;101718.87;104049;1290;62910;-81
2024/04/08 08:31:00;;;;;;;;;;;;;;;21.07;41.22;101720.40;104181;1290;62892;-78
2024/04/08 08:33:25;;;;;;;;;;;;;;;21.09;41.23;101714.02;104019;1291;70397;-79
2024/04/08 08:35:51;;;;;;;;;;;;;;;21.12;41.20;101715.66;104118;1290;62998;-79
2024/04/08 08:38:16;;;;;;;;;;;;;;;21.14;41.13;101714.10;104099;1291;62912;-78
2024/04/08 08:40:43;;;;;;;;;;;;;;;21.16;41.31;101713.95;103982;1289;62949;-78
2024/04/08 08:43:11;;;;;;;;;;;;;;;21.18;41.25;101714.98;104145;1294;62949;-78
2024/04/08 08:45:41;;;;;;;;;;;;;;;21.18;41.22;101709.60;104062;1291;62924;-78
2024/04/08 08:48:08;;;;;;;;;;;;;;;21.18;41.19;101708.86;104207;1289;62947;-80
2024/04/08 08:50:34;;;;;;;;;;;;;;;21.18;41.13;101713.71;104400;1289;62950;-79
2024/04/08 08:53:00;;;;;;;;;;;;;;;21.17;41.07;101716.27;104484;1291;62930;-81
2024/04/08 08:55:25;;;;;;;;;;;;;;;21.11;41.00;101715.86;104588;1290;61843;-78
2024/04/08 08:57:51;;;;;;;;;;;;;;;21.06;41.14;101714.21;104595;1290;62914;-79
2024/04/08 09:00:18;;;;;;;;;;;;;;;21.04;41.20;101709.44;104975;1289;62930;-79
2024/04/08 09:02:43;;;;;;;;;;;;;;;21.07;41.35;101703.91;104988;1289;63015;-79
2024/04/08 09:05:09;;;;;;;;;;;;;;;21.12;41.48;101709.17;105098;1290;62839;-78
2024/04/08 09:07:34;;;;;;;;;;;;;;;21.16;41.67;101705.03;105055;1290;62931;-80
2024/04/08 09:10:00;;;;;;;;;;;;;;;21.18;41.61;101702.92;104883;1291;61436;-78
2024/04/08 09:12:29;;;;;;;;;;;;;;;21.21;41.54;101698.46;105060;1292;62882;-80
2024/04/08 09:14:54;;;;;;;;;;;;;;;21.24;41.72;101697.75;104942;1289;62939;-80
2024/04/08 09:17:20;;;;;;;;;;;;;;;21.28;41.77;101695.95;104979;1290;62904;-80
2024/04/08 09:19:46;;;;;;;;;;;;;;;21.30;41.94;101691.31;104394;1290;62974;-80
2024/04/08 09:22:13;;;;;;;;;;;;;;;21.32;41.82;101686.23;104689;1290;62843;-80
2024/04/08 09:24:41;;;;;;;;;;;;;;;21.32;41.93;101687.25;104647;1294;64381;-79
2024/04/08 09:27:07;;;;;;;;;;;;;;;21.32;41.77;101682.44;104164;1289;62820;-79
2024/04/08 09:29:32;;;;;;;;;;;;;;;21.32;41.67;101677.08;104088;1290;63713;-80
2024/04/08 09:32:00;;;;;;;;;;;;;;;21.30;41.43;101676.85;104128;1292;61885;-79
2024/04/08 09:34:25;;;;;;;;;;;;;;;21.28;41.37;101679.47;104101;1290;64324;-79
2024/04/08 09:36:52;;;;;;;;;;;;;;;21.29;41.45;101680.86;104318;1291;62897;-78
2024/04/08 09:39:17;;;;;;;;;;;;;;;21.26;41.05;101678.11;104093;1290;63010;-81
2024/04/08 09:41:44;;;;;;;;;;;;;;;21.25;41.21;101673.02;104338;1289;63083;-79
2024/04/08 09:44:12;;;;;;;;;;;;;;;21.25;41.13;101674.63;104628;1290;62988;-81
2024/04/08 09:46:41;;;;;;;;;;;;;;;21.24;41.09;101669.98;104722;1290;72388;-81
2024/04/08 09:49:09;;;;;;;;;;;;;;;21.25;41.27;101671.17;104520;1290;76266;-79
2024/04/08 09:51:41;;;;;;;;;;;;;;;21.28;41.29;101664.41;103852;1289;63033;-79
2024/04/08 09:54:09;;;;;;;;;;;;;;;21.32;41.42;101661.13;104290;1292;63017;-79
2024/04/08 09:56:38;;;;;;;;;;;;;;;21.35;41.38;101660.60;104270;1292;72249;-78
2024/04/08 09:59:15;;;;;;;;;;;;;;;21.37;41.59;101655.47;103960;1289;75047;-79
2024/04/08 10:01:43;;;;;;;;;;;;;;;21.38;41.45;101655.38;104597;1290;62980;-80
2024/04/08 10:04:28;;;;;;;;;;;;;;;21.39;41.37;101649.42;104950;1290;62774;-80
2024/04/08 10:06:54;;;;;;;;;;;;;;;21.39;41.45;101639.06;104842;1291;72368;-79
2024/04/08 10:09:20;;;;;;;;;;;;;;;21.39;41.41;101637.23;104862;1290;61541;-80
2024/04/08 10:11:53;;;;;;;;;;;;;;;21.39;41.41;101634.73;104700;1289;62903;-79
2024/04/08 10:14:19;;;;;;;;;;;;;;;21.36;41.08;101637.27;104599;1290;62790;-80
2024/04/08 10:16:50;;;;;;;;;;;;;;;21.26;40.62;101631.56;104578;1289;62901;-79
2024/04/08 10:19:18;;;;;;;;;;;;;;;21.16;40.38;101627.13;104869;1289;76071;-79
2024/04/08 10:21:44;;;;;;;;;;;;;;;21.17;40.55;101626.21;104536;1289;62678;-80
2024/04/08 10:24:26;;;;;;;;;;;;;;;21.19;40.76;101626.09;104700;1291;63004;-83
2024/04/08 10:26:58;;;;;;;;;;;;;;;21.20;40.54;101624.95;106005;1290;73897;-79
2024/04/08 10:29:24;;;;;;;;;;;;;;;21.19;40.28;101619.14;106069;1290;76171;-80
2024/04/08 10:31:50;;;;;;;;;;;;;;;21.19;40.32;101620.18;105170;1289;60804;-79
2024/04/08 10:34:16;;;;;;;;;;;;;;;21.21;40.49;101620.40;104182;1289;62921;-78
2024/04/08 10:36:43;;;;;;;;;;;;;;;21.25;40.51;101616.60;104388;1290;72468;-81
2024/04/08 10:39:09;;;;;;;;;;;;;;;21.25;40.39;101613.16;104399;1289;62993;-78
2024/04/08 10:41:34;;;;;;;;;;;;;;;21.22;40.10;101609.05;104404;1292;62991;-78
2024/04/08 10:44:00;;;;;;;;;;;;;;;21.19;40.07;101607.64;104322;1290;63017;-80
2024/04/08 10:46:27;;;;;;;;;;;;;;;21.19;40.16;101601.70;104219;1290;63010;-78
2024/04/08 10:48:53;;;;;;;;;;;;;;;21.21;40.21;101600.00;104218;1289;61858;-80
2024/04/08 10:51:19;;;;;;;;;;;;;;;21.22;40.09;101597.27;104233;1291;62975;-79
2024/04/08 10:53:44;;;;;;;;;;;;;;;21.18;39.76;101589.45;104599;1291;62911;-77
2024/04/08 10:56:11;;;;;;;;;;;;;;;21.14;39.66;101584.85;104363;1289;63783;-78
2024/04/08 10:58:36;;;;;;;;;;;;;;;21.14;39.73;101585.05;104373;1289;60871;-80
2024/04/08 11:01:05;;;;;;;;;;;;;;;21.14;39.54;101578.95;104547;1292;62904;-79
2024/04/08 11:03:30;;;;;;;;;;;;;;;21.15;39.64;101576.75;105115;1289;62846;-79
2024/04/08 11:05:56;;;;;;;;;;;;;;;21.17;39.54;101577.52;105103;1292;62940;-78
2024/04/08 11:08:22;;;;;;;;;;;;;;;21.21;39.62;101572.98;105085;1289;62921;-80
2024/04/08 11:10:47;;;;;;;;;;;;;;;21.24;39.47;101570.85;105089;1291;62887;-80
2024/04/08 11:13:13;;;;;;;;;;;;;;;21.26;39.63;101570.55;104872;1289;62918;-80
2024/04/08 11:15:40;;;;;;;;;;;;;;;21.27;39.60;101568.69;104872;1289;60940;-81
2024/04/08 11:18:10;;;;;;;;;;;;;;;21.29;39.51;101567.36;104727;1289;61652;-77
2024/04/08 11:20:36;;;;;;;;;;;;;;;21.27;39.21;101564.02;104982;1292;72525;-80
2024/04/08 11:23:02;;;;;;;;;;;;;;;21.26;39.28;101560.64;104901;1290;63007;-79
2024/04/08 11:25:28;;;;;;;;;;;;;;;21.25;39.07;101557.00;106097;1289;60539;-80
2024/04/08 11:27:54;;;;;;;;;;;;;;;21.21;38.79;101547.23;106123;1291;60906;-80
2024/04/08 11:30:19;;;;;;;;;;;;;;;21.22;38.85;101543.02;106135;1289;60670;-80
2024/04/08 11:32:45;;;;;;;;;;;;;;;21.23;38.71;101540.61;106017;1290;61495;-77
2024/04/08 11:35:12;;;;;;;;;;;;;;;21.22;38.46;101539.06;105937;1290;76046;-77
2024/04/08 11:37:38;;;;;;;;;;;;;;;21.24;38.37;101541.48;104178;1290;62994;-79
2024/04/08 11:40:13;;;;;;;;;;;;;;;21.24;38.33;101538.40;104506;1289;62833;-79
2024/04/08 11:42:38;;;;;;;;;;;;;;;21.23;38.16;101531.66;104497;1290;72216;-80
2024/04/08 11:45:05;;;;;;;;;;;;;;;21.26;38.26;101530.61;104500;1289;62933;-77
2024/04/08 11:47:31;;;;;;;;;;;;;;;21.29;37.87;101524.91;104772;1291;63096;-78
2024/04/08 11:49:56;;;;;;;;;;;;;;;21.32;38.06;101521.68;104567;1291;62983;-77
2024/04/08 11:52:22;;;;;;;;;;;;;;;21.34;37.92;101516.34;104558;1290;62981;-79
2024/04/08 11:54:48;;;;;;;;;;;;;;;21.35;37.86;101511.63;104902;1290;62904;-77
2024/04/08 11:57:14;;;;;;;;;;;;;;;21.37;37.73;101511.36;105247;1289;63049;-77
2024/04/08 11:59:39;;;;;;;;;;;;;;;21.38;37.78;101510.04;104926;1290;63061;-80
2024/04/08 12:02:08;;;;;;;;;;;;;;;21.39;37.72;101501.14;104745;1289;61677;-77
2024/04/08 12:04:34;;;;;;;;;;;;;;;21.43;37.88;101502.52;105045;1289;61223;-78
2024/04/08 12:07:01;;;;;;;;;;;;;;;21.46;38.14;101499.33;105229;1292;60709;-80
2024/04/08 12:09:26;;;;;;;;;;;;;;;21.48;37.88;101496.17;105337;1292;61087;-79
2024/04/08 12:11:52;;;;;;;;;;;;;;;21.47;37.70;101497.12;105109;1290;60752;-80
2024/04/08 12:14:17;;;;;;;;;;;;;;;21.46;37.53;101491.27;105490;1291;63244;-78
2024/04/08 12:16:43;;;;;;;;;;;;;;;21.46;37.59;101489.10;105386;1289;72468;-81
2024/04/08 12:19:11;;;;;;;;;;;;;;;21.47;37.40;101487.95;105436;1290;60884;-81